CYEG/YEG METAR and TAF weather

Enter ICAO airport designator
Station Type Date Time Source
CYEG METAR 2022/06/30 02:00 UTC NOAA

CYEG 300200Z 03012KT 20SM VCSH SCT057CB BKN240 18/10 A2993 RMK CB3CI2 CB S QUAD MOV S SLP141 DENSITY ALT 3400FT


Station Type Date Time Source
CYEG Decoded METAR 2022/06/30 02:00 UTC NOAA

Edmonton International, Alta., Canada (CYEG) 53-18N 113-35W 723M
Jun 29, 2022 - 10:00 PM EDT / 2022.06.30 0200 UTC
Wind: from the NNE (030 degrees) at 14 MPH (12 KT):0
Visibility: 20 mile(s):0
Sky conditions: mostly cloudy
Weather: showers in the vicinity; Cumulonimbus clouds observed
Temperature: 64 F (18 C)
Dew Point: 50 F (10 C)
Relative Humidity: 59%
Pressure (altimeter): 29.93 in. Hg (1013 hPa)
ob: CYEG 300200Z 03012KT 20SM VCSH SCT057CB BKN240 18/10 A2993 RMK CB3CI2 CB S QUAD MOV S SLP141 DENSITY ALT 3400FT
cycle: 2

Station Type Date Time Source
CYEG TAF 2022/06/30 00:44 UTC NOAA

TAF
AMD CYEG 300039Z 3000/3024 36008KT P6SM SCT060 BKN240
TEMPO 3000/3003 VRB20G30KT 5SM TSRA BKN040CB
FM300300 30008KT P6SM SCT060
TEMPO 3003/3011 P6SM -SHRA BKN060
FM301500 32010KT P6SM FEW060
FM302100 34010KT P6SM BKN060
TEMPO 3021/3024 VRB15G25KT 5SM TSRA BKN050CB
RMK NXT FCST BY 300300Z

Example: see airport list